sensor_id;sensor_type;location;lat;lon;timestamp;P1;durP1;ratioP1;P2;durP2;ratioP2
54823;SDS011;40724;53.196;5.980;2023-03-19T00:01:45;6.78;;;4.43;;
54823;SDS011;40724;53.196;5.980;2023-03-19T00:04:11;5.38;;;4.50;;
54823;SDS011;40724;53.196;5.980;2023-03-19T00:06:38;6.47;;;4.90;;
54823;SDS011;40724;53.196;5.980;2023-03-19T00:09:04;5.30;;;4.68;;
54823;SDS011;40724;53.196;5.980;2023-03-19T00:11:30;6.35;;;3.90;;
54823;SDS011;40724;53.196;5.980;2023-03-19T00:13:58;6.88;;;4.80;;
54823;SDS011;40724;53.196;5.980;2023-03-19T00:16:24;6.07;;;3.70;;
54823;SDS011;40724;53.196;5.980;2023-03-19T00:18:51;9.50;;;5.38;;
54823;SDS011;40724;53.196;5.980;2023-03-19T00:21:17;7.35;;;4.97;;
54823;SDS011;40724;53.196;5.980;2023-03-19T00:23:44;6.97;;;4.30;;
54823;SDS011;40724;53.196;5.980;2023-03-19T00:26:10;6.10;;;4.30;;
54823;SDS011;40724;53.196;5.980;2023-03-19T00:28:36;6.60;;;4.00;;
54823;SDS011;40724;53.196;5.980;2023-03-19T00:31:09;5.10;;;3.97;;
54823;SDS011;40724;53.196;5.980;2023-03-19T00:33:36;5.82;;;4.28;;
54823;SDS011;40724;53.196;5.980;2023-03-19T00:36:03;5.65;;;4.00;;
54823;SDS011;40724;53.196;5.980;2023-03-19T00:38:30;7.55;;;4.63;;
54823;SDS011;40724;53.196;5.980;2023-03-19T00:40:56;6.22;;;3.95;;
54823;SDS011;40724;53.196;5.980;2023-03-19T00:43:23;6.65;;;5.07;;
54823;SDS011;40724;53.196;5.980;2023-03-19T00:45:49;7.05;;;4.30;;
54823;SDS011;40724;53.196;5.980;2023-03-19T00:48:16;5.80;;;4.40;;
54823;SDS011;40724;53.196;5.980;2023-03-19T00:50:42;6.90;;;4.65;;
54823;SDS011;40724;53.196;5.980;2023-03-19T00:53:08;7.63;;;4.22;;
54823;SDS011;40724;53.196;5.980;2023-03-19T00:55:35;5.95;;;4.32;;
54823;SDS011;40724;53.196;5.980;2023-03-19T00:58:01;4.93;;;4.38;;
54823;SDS011;40724;53.196;5.980;2023-03-19T01:00:27;7.05;;;4.68;;
54823;SDS011;40724;53.196;5.980;2023-03-19T01:02:53;5.43;;;4.22;;
54823;SDS011;40724;53.196;5.980;2023-03-19T01:05:20;5.43;;;4.38;;
54823;SDS011;40724;53.196;5.980;2023-03-19T01:07:46;6.93;;;4.50;;
54823;SDS011;40724;53.196;5.980;2023-03-19T01:10:12;8.32;;;4.32;;
54823;SDS011;40724;53.196;5.980;2023-03-19T01:12:38;6.85;;;4.47;;
54823;SDS011;40724;53.196;5.980;2023-03-19T01:15:06;7.43;;;4.30;;
54823;SDS011;40724;53.196;5.980;2023-03-19T01:17:32;6.30;;;4.53;;
54823;SDS011;40724;53.196;5.980;2023-03-19T01:19:59;8.18;;;4.18;;
54823;SDS011;40724;53.196;5.980;2023-03-19T01:22:25;5.18;;;3.90;;
54823;SDS011;40724;53.196;5.980;2023-03-19T01:24:51;5.25;;;3.83;;
54823;SDS011;40724;53.196;5.980;2023-03-19T01:27:18;5.65;;;3.90;;
54823;SDS011;40724;53.196;5.980;2023-03-19T01:29:45;4.72;;;3.15;;
54823;SDS011;40724;53.196;5.980;2023-03-19T01:32:11;8.48;;;3.95;;
54823;SDS011;40724;53.196;5.980;2023-03-19T01:34:37;8.10;;;5.00;;
54823;SDS011;40724;53.196;5.980;2023-03-19T01:37:03;12.20;;;5.10;;
54823;SDS011;40724;53.196;5.980;2023-03-19T01:39:30;6.22;;;3.53;;
54823;SDS011;40724;53.196;5.980;2023-03-19T01:41:59;5.97;;;3.95;;
54823;SDS011;40724;53.196;5.980;2023-03-19T01:44:32;5.88;;;3.63;;
54823;SDS011;40724;53.196;5.980;2023-03-19T01:47:00;6.38;;;4.65;;
54823;SDS011;40724;53.196;5.980;2023-03-19T01:49:27;8.27;;;3.88;;
54823;SDS011;40724;53.196;5.980;2023-03-19T01:51:54;10.32;;;4.22;;
54823;SDS011;40724;53.196;5.980;2023-03-19T01:54:21;7.00;;;4.32;;
54823;SDS011;40724;53.196;5.980;2023-03-19T01:56:48;5.88;;;4.13;;
54823;SDS011;40724;53.196;5.980;2023-03-19T01:59:17;5.57;;;3.40;;
54823;SDS011;40724;53.196;5.980;2023-03-19T02:01:50;7.65;;;3.95;;
54823;SDS011;40724;53.196;5.980;2023-03-19T02:04:18;6.30;;;4.00;;
54823;SDS011;40724;53.196;5.980;2023-03-19T02:06:44;5.10;;;4.57;;
54823;SDS011;40724;53.196;5.980;2023-03-19T02:09:11;7.22;;;4.05;;
54823;SDS011;40724;53.196;5.980;2023-03-19T02:11:38;5.10;;;3.88;;
54823;SDS011;40724;53.196;5.980;2023-03-19T02:14:05;5.13;;;4.55;;
54823;SDS011;40724;53.196;5.980;2023-03-19T02:16:33;6.20;;;4.32;;
54823;SDS011;40724;53.196;5.980;2023-03-19T02:18:59;4.45;;;3.70;;
54823;SDS011;40724;53.196;5.980;2023-03-19T02:21:26;6.18;;;3.95;;
54823;SDS011;40724;53.196;5.980;2023-03-19T02:26:21;5.78;;;4.40;;
54823;SDS011;40724;53.196;5.980;2023-03-19T02:28:49;4.80;;;3.88;;
54823;SDS011;40724;53.196;5.980;2023-03-19T02:31:15;6.07;;;4.32;;
54823;SDS011;40724;53.196;5.980;2023-03-19T02:33:42;7.28;;;5.32;;
54823;SDS011;40724;53.196;5.980;2023-03-19T02:36:17;6.55;;;4.45;;
54823;SDS011;40724;53.196;5.980;2023-03-19T02:38:44;8.15;;;5.82;;
54823;SDS011;40724;53.196;5.980;2023-03-19T02:41:11;9.38;;;5.25;;
54823;SDS011;40724;53.196;5.980;2023-03-19T02:43:38;9.40;;;6.00;;
54823;SDS011;40724;53.196;5.980;2023-03-19T02:46:06;10.18;;;7.38;;
54823;SDS011;40724;53.196;5.980;2023-03-19T02:48:32;12.25;;;7.25;;
54823;SDS011;40724;53.196;5.980;2023-03-19T02:50:59;11.77;;;7.90;;
54823;SDS011;40724;53.196;5.980;2023-03-19T02:53:25;12.23;;;8.77;;
54823;SDS011;40724;53.196;5.980;2023-03-19T02:55:51;16.33;;;10.20;;
54823;SDS011;40724;53.196;5.980;2023-03-19T02:58:17;13.90;;;10.25;;
54823;SDS011;40724;53.196;5.980;2023-03-19T03:00:43;15.63;;;11.25;;
54823;SDS011;40724;53.196;5.980;2023-03-19T03:03:10;15.35;;;11.55;;
54823;SDS011;40724;53.196;5.980;2023-03-19T03:05:36;16.58;;;11.98;;
54823;SDS011;40724;53.196;5.980;2023-03-19T03:08:03;16.50;;;12.02;;
54823;SDS011;40724;53.196;5.980;2023-03-19T03:10:30;19.25;;;13.10;;
54823;SDS011;40724;53.196;5.980;2023-03-19T03:12:56;17.27;;;12.70;;
54823;SDS011;40724;53.196;5.980;2023-03-19T03:15:22;15.60;;;10.85;;
54823;SDS011;40724;53.196;5.980;2023-03-19T03:17:48;15.52;;;11.75;;
54823;SDS011;40724;53.196;5.980;2023-03-19T03:20:15;21.08;;;12.60;;
54823;SDS011;40724;53.196;5.980;2023-03-19T03:22:41;13.48;;;10.00;;
54823;SDS011;40724;53.196;5.980;2023-03-19T03:25:08;14.43;;;9.50;;
54823;SDS011;40724;53.196;5.980;2023-03-19T03:27:35;13.52;;;10.77;;
54823;SDS011;40724;53.196;5.980;2023-03-19T03:30:02;16.25;;;10.77;;
54823;SDS011;40724;53.196;5.980;2023-03-19T03:32:29;11.63;;;8.75;;
54823;SDS011;40724;53.196;5.980;2023-03-19T03:34:55;11.18;;;8.07;;
54823;SDS011;40724;53.196;5.980;2023-03-19T03:37:21;10.23;;;7.88;;
54823;SDS011;40724;53.196;5.980;2023-03-19T03:39:47;10.50;;;8.07;;
54823;SDS011;40724;53.196;5.980;2023-03-19T03:42:14;11.55;;;7.03;;
54823;SDS011;40724;53.196;5.980;2023-03-19T03:44:40;12.48;;;8.85;;
54823;SDS011;40724;53.196;5.980;2023-03-19T03:47:06;10.60;;;8.27;;
54823;SDS011;40724;53.196;5.980;2023-03-19T03:49:33;9.23;;;7.22;;
54823;SDS011;40724;53.196;5.980;2023-03-19T03:51:59;8.10;;;6.43;;
54823;SDS011;40724;53.196;5.980;2023-03-19T03:54:25;11.32;;;7.38;;
54823;SDS011;40724;53.196;5.980;2023-03-19T03:56:51;9.15;;;6.68;;
54823;SDS011;40724;53.196;5.980;2023-03-19T03:59:17;11.70;;;7.60;;
54823;SDS011;40724;53.196;5.980;2023-03-19T04:01:43;9.75;;;6.28;;
54823;SDS011;40724;53.196;5.980;2023-03-19T04:04:10;9.77;;;6.68;;
54823;SDS011;40724;53.196;5.980;2023-03-19T04:06:36;10.18;;;6.05;;
54823;SDS011;40724;53.196;5.980;2023-03-19T04:09:02;14.80;;;8.48;;
54823;SDS011;40724;53.196;5.980;2023-03-19T04:11:29;9.48;;;7.35;;
54823;SDS011;40724;53.196;5.980;2023-03-19T04:13:55;10.25;;;6.70;;
54823;SDS011;40724;53.196;5.980;2023-03-19T04:16:22;9.27;;;6.85;;
54823;SDS011;40724;53.196;5.980;2023-03-19T04:18:48;8.75;;;7.18;;
54823;SDS011;40724;53.196;5.980;2023-03-19T04:21:14;8.77;;;6.88;;
54823;SDS011;40724;53.196;5.980;2023-03-19T04:23:41;10.27;;;7.60;;
54823;SDS011;40724;53.196;5.980;2023-03-19T04:26:07;10.13;;;7.07;;
54823;SDS011;40724;53.196;5.980;2023-03-19T04:28:33;11.63;;;7.90;;
54823;SDS011;40724;53.196;5.980;2023-03-19T04:31:06;9.18;;;6.93;;
54823;SDS011;40724;53.196;5.980;2023-03-19T04:33:33;8.85;;;6.43;;
54823;SDS011;40724;53.196;5.980;2023-03-19T04:36:00;9.27;;;7.00;;
54823;SDS011;40724;53.196;5.980;2023-03-19T04:38:26;10.95;;;7.90;;
54823;SDS011;40724;53.196;5.980;2023-03-19T04:40:53;8.73;;;7.50;;
54823;SDS011;40724;53.196;5.980;2023-03-19T04:43:20;11.63;;;9.10;;
54823;SDS011;40724;53.196;5.980;2023-03-19T04:45:46;12.77;;;8.40;;
54823;SDS011;40724;53.196;5.980;2023-03-19T04:48:12;11.68;;;9.45;;
54823;SDS011;40724;53.196;5.980;2023-03-19T04:50:38;13.10;;;9.13;;
54823;SDS011;40724;53.196;5.980;2023-03-19T04:53:05;13.07;;;10.30;;
54823;SDS011;40724;53.196;5.980;2023-03-19T04:55:32;17.20;;;12.65;;
54823;SDS011;40724;53.196;5.980;2023-03-19T04:57:58;17.73;;;12.35;;
54823;SDS011;40724;53.196;5.980;2023-03-19T05:00:24;21.67;;;15.20;;
54823;SDS011;40724;53.196;5.980;2023-03-19T05:02:50;16.92;;;12.77;;
54823;SDS011;40724;53.196;5.980;2023-03-19T05:05:17;21.00;;;14.05;;
54823;SDS011;40724;53.196;5.980;2023-03-19T05:07:43;18.83;;;13.73;;
54823;SDS011;40724;53.196;5.980;2023-03-19T05:10:09;27.23;;;15.07;;
54823;SDS011;40724;53.196;5.980;2023-03-19T05:12:35;22.55;;;15.32;;
54823;SDS011;40724;53.196;5.980;2023-03-19T05:15:02;23.00;;;14.75;;
54823;SDS011;40724;53.196;5.980;2023-03-19T05:17:29;19.77;;;14.88;;
54823;SDS011;40724;53.196;5.980;2023-03-19T05:19:56;22.80;;;15.30;;
54823;SDS011;40724;53.196;5.980;2023-03-19T05:22:22;21.30;;;17.20;;
54823;SDS011;40724;53.196;5.980;2023-03-19T05:24:48;21.52;;;15.75;;
54823;SDS011;40724;53.196;5.980;2023-03-19T05:27:15;19.52;;;14.85;;
54823;SDS011;40724;53.196;5.980;2023-03-19T05:29:41;22.77;;;15.85;;
54823;SDS011;40724;53.196;5.980;2023-03-19T05:32:07;20.42;;;15.60;;
54823;SDS011;40724;53.196;5.980;2023-03-19T05:34:34;26.02;;;17.13;;
54823;SDS011;40724;53.196;5.980;2023-03-19T05:37:00;24.85;;;16.75;;
54823;SDS011;40724;53.196;5.980;2023-03-19T05:39:26;24.88;;;16.23;;
54823;SDS011;40724;53.196;5.980;2023-03-19T05:41:53;25.40;;;17.27;;
54823;SDS011;40724;53.196;5.980;2023-03-19T05:44:19;21.80;;;15.00;;
54823;SDS011;40724;53.196;5.980;2023-03-19T05:46:46;25.17;;;15.43;;
54823;SDS011;40724;53.196;5.980;2023-03-19T05:49:12;23.42;;;16.02;;
54823;SDS011;40724;53.196;5.980;2023-03-19T05:51:38;17.17;;;14.00;;
54823;SDS011;40724;53.196;5.980;2023-03-19T05:54:05;20.70;;;14.48;;
54823;SDS011;40724;53.196;5.980;2023-03-19T05:56:31;20.45;;;14.45;;
54823;SDS011;40724;53.196;5.980;2023-03-19T05:58:57;22.25;;;13.43;;
54823;SDS011;40724;53.196;5.980;2023-03-19T06:01:23;18.58;;;14.30;;
54823;SDS011;40724;53.196;5.980;2023-03-19T06:03:49;20.58;;;14.48;;
54823;SDS011;40724;53.196;5.980;2023-03-19T06:06:14;24.20;;;15.85;;
54823;SDS011;40724;53.196;5.980;2023-03-19T06:08:41;20.38;;;15.20;;
54823;SDS011;40724;53.196;5.980;2023-03-19T06:11:07;21.70;;;16.02;;
54823;SDS011;40724;53.196;5.980;2023-03-19T06:13:34;20.10;;;15.00;;
54823;SDS011;40724;53.196;5.980;2023-03-19T06:16:00;23.73;;;15.20;;
54823;SDS011;40724;53.196;5.980;2023-03-19T06:18:26;23.55;;;15.63;;
54823;SDS011;40724;53.196;5.980;2023-03-19T06:20:52;22.67;;;14.00;;
54823;SDS011;40724;53.196;5.980;2023-03-19T06:23:19;27.23;;;17.52;;
54823;SDS011;40724;53.196;5.980;2023-03-19T06:25:45;25.45;;;17.77;;
54823;SDS011;40724;53.196;5.980;2023-03-19T06:28:11;32.17;;;18.85;;
54823;SDS011;40724;53.196;5.980;2023-03-19T06:30:37;32.47;;;18.58;;
54823;SDS011;40724;53.196;5.980;2023-03-19T06:33:03;27.27;;;17.75;;
54823;SDS011;40724;53.196;5.980;2023-03-19T06:35:29;31.52;;;19.83;;
54823;SDS011;40724;53.196;5.980;2023-03-19T06:37:54;31.30;;;21.50;;
54823;SDS011;40724;53.196;5.980;2023-03-19T06:40:20;26.40;;;18.05;;
54823;SDS011;40724;53.196;5.980;2023-03-19T06:42:47;28.73;;;19.23;;
54823;SDS011;40724;53.196;5.980;2023-03-19T06:45:13;27.08;;;18.30;;
54823;SDS011;40724;53.196;5.980;2023-03-19T06:47:42;27.83;;;17.50;;
54823;SDS011;40724;53.196;5.980;2023-03-19T06:50:08;24.98;;;17.20;;
54823;SDS011;40724;53.196;5.980;2023-03-19T06:52:35;28.20;;;18.77;;
54823;SDS011;40724;53.196;5.980;2023-03-19T06:55:01;29.65;;;17.50;;
54823;SDS011;40724;53.196;5.980;2023-03-19T06:57:26;24.45;;;17.42;;
54823;SDS011;40724;53.196;5.980;2023-03-19T06:59:52;24.48;;;16.95;;
54823;SDS011;40724;53.196;5.980;2023-03-19T07:02:18;25.05;;;17.20;;
54823;SDS011;40724;53.196;5.980;2023-03-19T07:04:44;24.00;;;15.85;;
54823;SDS011;40724;53.196;5.980;2023-03-19T07:07:10;20.00;;;14.98;;
54823;SDS011;40724;53.196;5.980;2023-03-19T07:09:36;21.88;;;14.93;;
54823;SDS011;40724;53.196;5.980;2023-03-19T07:12:02;20.40;;;15.35;;
54823;SDS011;40724;53.196;5.980;2023-03-19T07:14:29;23.77;;;16.13;;
54823;SDS011;40724;53.196;5.980;2023-03-19T07:16:55;26.17;;;16.27;;
54823;SDS011;40724;53.196;5.980;2023-03-19T07:19:21;22.10;;;15.88;;
54823;SDS011;40724;53.196;5.980;2023-03-19T07:21:47;20.30;;;15.15;;
54823;SDS011;40724;53.196;5.980;2023-03-19T07:24:14;21.67;;;16.25;;
54823;SDS011;40724;53.196;5.980;2023-03-19T07:26:40;28.10;;;17.42;;
54823;SDS011;40724;53.196;5.980;2023-03-19T07:29:08;27.52;;;16.63;;
54823;SDS011;40724;53.196;5.980;2023-03-19T07:31:35;26.15;;;17.42;;
54823;SDS011;40724;53.196;5.980;2023-03-19T07:34:01;28.48;;;16.92;;
54823;SDS011;40724;53.196;5.980;2023-03-19T07:36:28;30.55;;;18.10;;
54823;SDS011;40724;53.196;5.980;2023-03-19T07:38:55;32.70;;;20.02;;
54823;SDS011;40724;53.196;5.980;2023-03-19T07:41:21;37.50;;;22.48;;
54823;SDS011;40724;53.196;5.980;2023-03-19T07:43:47;37.22;;;23.27;;
54823;SDS011;40724;53.196;5.980;2023-03-19T07:46:14;41.83;;;25.45;;
54823;SDS011;40724;53.196;5.980;2023-03-19T07:48:40;34.20;;;21.40;;
54823;SDS011;40724;53.196;5.980;2023-03-19T07:51:06;38.53;;;22.58;;
54823;SDS011;40724;53.196;5.980;2023-03-19T07:53:32;38.30;;;23.83;;
54823;SDS011;40724;53.196;5.980;2023-03-19T07:55:58;38.67;;;22.02;;
54823;SDS011;40724;53.196;5.980;2023-03-19T07:58:25;37.60;;;21.48;;
54823;SDS011;40724;53.196;5.980;2023-03-19T08:00:51;34.45;;;21.15;;
54823;SDS011;40724;53.196;5.980;2023-03-19T08:03:18;33.42;;;20.90;;
54823;SDS011;40724;53.196;5.980;2023-03-19T08:05:44;36.55;;;21.63;;
54823;SDS011;40724;53.196;5.980;2023-03-19T08:08:12;38.25;;;23.20;;
54823;SDS011;40724;53.196;5.980;2023-03-19T08:10:39;34.97;;;22.50;;
54823;SDS011;40724;53.196;5.980;2023-03-19T08:13:05;40.40;;;25.38;;
54823;SDS011;40724;53.196;5.980;2023-03-19T08:15:31;37.40;;;24.88;;
54823;SDS011;40724;53.196;5.980;2023-03-19T08:18:01;44.95;;;26.55;;
54823;SDS011;40724;53.196;5.980;2023-03-19T08:20:28;42.17;;;26.25;;
54823;SDS011;40724;53.196;5.980;2023-03-19T08:22:54;50.63;;;26.35;;
54823;SDS011;40724;53.196;5.980;2023-03-19T08:25:21;49.50;;;30.48;;
54823;SDS011;40724;53.196;5.980;2023-03-19T08:27:48;50.85;;;30.20;;
54823;SDS011;40724;53.196;5.980;2023-03-19T08:30:14;43.92;;;28.30;;
54823;SDS011;40724;53.196;5.980;2023-03-19T08:32:41;46.53;;;27.67;;
54823;SDS011;40724;53.196;5.980;2023-03-19T08:35:09;41.22;;;25.90;;
54823;SDS011;40724;53.196;5.980;2023-03-19T08:37:36;42.53;;;26.33;;
54823;SDS011;40724;53.196;5.980;2023-03-19T08:40:02;50.15;;;28.33;;
54823;SDS011;40724;53.196;5.980;2023-03-19T08:42:29;47.63;;;28.65;;
54823;SDS011;40724;53.196;5.980;2023-03-19T08:44:55;47.83;;;28.35;;
54823;SDS011;40724;53.196;5.980;2023-03-19T08:47:21;52.30;;;30.98;;
54823;SDS011;40724;53.196;5.980;2023-03-19T08:49:49;51.45;;;29.10;;
54823;SDS011;40724;53.196;5.980;2023-03-19T08:52:16;52.80;;;29.13;;
54823;SDS011;40724;53.196;5.980;2023-03-19T08:54:42;53.53;;;28.63;;
54823;SDS011;40724;53.196;5.980;2023-03-19T08:57:08;48.95;;;28.20;;
54823;SDS011;40724;53.196;5.980;2023-03-19T08:59:33;43.40;;;26.98;;
54823;SDS011;40724;53.196;5.980;2023-03-19T09:01:59;48.60;;;26.88;;
54823;SDS011;40724;53.196;5.980;2023-03-19T09:04:25;43.65;;;25.17;;
54823;SDS011;40724;53.196;5.980;2023-03-19T09:06:51;43.90;;;26.50;;
54823;SDS011;40724;53.196;5.980;2023-03-19T09:09:18;44.35;;;23.83;;
54823;SDS011;40724;53.196;5.980;2023-03-19T09:11:45;41.80;;;25.23;;
54823;SDS011;40724;53.196;5.980;2023-03-19T09:14:11;41.15;;;23.23;;
54823;SDS011;40724;53.196;5.980;2023-03-19T09:16:38;41.53;;;24.10;;
54823;SDS011;40724;53.196;5.980;2023-03-19T09:19:05;39.08;;;21.10;;
54823;SDS011;40724;53.196;5.980;2023-03-19T09:21:30;32.88;;;19.70;;
54823;SDS011;40724;53.196;5.980;2023-03-19T09:23:56;29.13;;;17.27;;
54823;SDS011;40724;53.196;5.980;2023-03-19T09:26:22;31.83;;;16.95;;
54823;SDS011;40724;53.196;5.980;2023-03-19T09:28:48;33.55;;;17.55;;
54823;SDS011;40724;53.196;5.980;2023-03-19T09:31:14;30.40;;;16.25;;
54823;SDS011;40724;53.196;5.980;2023-03-19T09:33:39;26.55;;;15.07;;
54823;SDS011;40724;53.196;5.980;2023-03-19T09:36:05;27.58;;;15.48;;
54823;SDS011;40724;53.196;5.980;2023-03-19T09:38:31;27.42;;;14.25;;
54823;SDS011;40724;53.196;5.980;2023-03-19T09:41:03;22.05;;;12.18;;
54823;SDS011;40724;53.196;5.980;2023-03-19T09:46:05;20.83;;;11.35;;
54823;SDS011;40724;53.196;5.980;2023-03-19T09:48:43;19.60;;;11.32;;
54823;SDS011;40724;53.196;5.980;2023-03-19T09:51:14;24.67;;;13.63;;
54823;SDS011;40724;53.196;5.980;2023-03-19T09:54:48;25.85;;;14.93;;
54823;SDS011;40724;53.196;5.980;2023-03-19T09:56:51;24.77;;;14.90;;
54823;SDS011;40724;53.196;5.980;2023-03-19T09:59:19;30.65;;;15.27;;
54823;SDS011;40724;53.196;5.980;2023-03-19T10:15:53;27.05;;;15.45;;
54823;SDS011;40724;53.196;5.980;2023-03-19T10:18:32;20.77;;;13.85;;
54823;SDS011;40724;53.196;5.980;2023-03-19T10:21:10;26.60;;;15.45;;
54823;SDS011;40724;53.196;5.980;2023-03-19T10:23:44;29.92;;;16.42;;
54823;SDS011;40724;53.196;5.980;2023-03-19T10:26:12;37.95;;;18.92;;
54823;SDS011;40724;53.196;5.980;2023-03-19T10:28:44;30.02;;;17.02;;
54823;SDS011;40724;53.196;5.980;2023-03-19T10:31:25;35.10;;;18.75;;
54823;SDS011;40724;53.196;5.980;2023-03-19T10:34:16;33.10;;;18.73;;
54823;SDS011;40724;53.196;5.980;2023-03-19T10:36:45;29.65;;;17.35;;
54823;SDS011;40724;53.196;5.980;2023-03-19T10:39:11;37.08;;;19.55;;
54823;SDS011;40724;53.196;5.980;2023-03-19T10:42:30;32.88;;;20.52;;
54823;SDS011;40724;53.196;5.980;2023-03-19T10:47:15;37.65;;;21.38;;
54823;SDS011;40724;53.196;5.980;2023-03-19T10:49:44;28.20;;;18.02;;
54823;SDS011;40724;53.196;5.980;2023-03-19T10:52:15;35.60;;;18.27;;
54823;SDS011;40724;53.196;5.980;2023-03-19T10:55:33;38.40;;;19.63;;
54823;SDS011;40724;53.196;5.980;2023-03-19T10:58:16;39.53;;;19.88;;
54823;SDS011;40724;53.196;5.980;2023-03-19T11:00:45;27.83;;;15.75;;
54823;SDS011;40724;53.196;5.980;2023-03-19T11:06:04;26.13;;;17.33;;
54823;SDS011;40724;53.196;5.980;2023-03-19T11:08:37;36.47;;;19.52;;
54823;SDS011;40724;53.196;5.980;2023-03-19T11:11:03;34.57;;;18.47;;
54823;SDS011;40724;53.196;5.980;2023-03-19T11:13:29;34.22;;;19.30;;
54823;SDS011;40724;53.196;5.980;2023-03-19T11:16:00;33.25;;;18.58;;
54823;SDS011;40724;53.196;5.980;2023-03-19T11:18:27;33.85;;;18.50;;
54823;SDS011;40724;53.196;5.980;2023-03-19T11:20:56;32.13;;;17.63;;
54823;SDS011;40724;53.196;5.980;2023-03-19T11:23:30;28.88;;;19.02;;
54823;SDS011;40724;53.196;5.980;2023-03-19T11:26:04;28.10;;;18.85;;
54823;SDS011;40724;53.196;5.980;2023-03-19T11:28:30;26.50;;;16.55;;
54823;SDS011;40724;53.196;5.980;2023-03-19T11:31:09;27.75;;;15.75;;
54823;SDS011;40724;53.196;5.980;2023-03-19T11:44:49;28.52;;;16.27;;
54823;SDS011;40724;53.196;5.980;2023-03-19T11:53:08;30.55;;;16.17;;
54823;SDS011;40724;53.196;5.980;2023-03-19T12:11:54;25.23;;;16.38;;
54823;SDS011;40724;53.196;5.980;2023-03-19T12:14:29;26.52;;;14.63;;
54823;SDS011;40724;53.196;5.980;2023-03-19T12:28:02;30.60;;;17.65;;
54823;SDS011;40724;53.196;5.980;2023-03-19T12:30:56;26.02;;;16.38;;
54823;SDS011;40724;53.196;5.980;2023-03-19T12:36:28;29.52;;;17.65;;
54823;SDS011;40724;53.196;5.980;2023-03-19T12:39:01;29.88;;;16.33;;
54823;SDS011;40724;53.196;5.980;2023-03-19T12:41:29;27.73;;;16.42;;
54823;SDS011;40724;53.196;5.980;2023-03-19T12:48:57;32.75;;;19.75;;
54823;SDS011;40724;53.196;5.980;2023-03-19T12:51:26;33.10;;;20.23;;
54823;SDS011;40724;53.196;5.980;2023-03-19T12:54:03;33.17;;;20.17;;
54823;SDS011;40724;53.196;5.980;2023-03-19T12:56:51;38.60;;;20.23;;
54823;SDS011;40724;53.196;5.980;2023-03-19T12:59:23;35.88;;;20.00;;
54823;SDS011;40724;53.196;5.980;2023-03-19T13:05:05;32.17;;;18.67;;
54823;SDS011;40724;53.196;5.980;2023-03-19T13:10:23;34.13;;;19.05;;
54823;SDS011;40724;53.196;5.980;2023-03-19T13:12:50;36.60;;;21.27;;
54823;SDS011;40724;53.196;5.980;2023-03-19T13:18:20;40.95;;;20.65;;
54823;SDS011;40724;53.196;5.980;2023-03-19T13:21:29;37.85;;;21.42;;
54823;SDS011;40724;53.196;5.980;2023-03-19T13:24:39;44.15;;;23.98;;
54823;SDS011;40724;53.196;5.980;2023-03-19T13:26:46;42.45;;;23.92;;
54823;SDS011;40724;53.196;5.980;2023-03-19T13:29:26;48.03;;;25.88;;
54823;SDS011;40724;53.196;5.980;2023-03-19T13:32:39;40.20;;;21.17;;
54823;SDS011;40724;53.196;5.980;2023-03-19T13:34:40;38.90;;;22.58;;
54823;SDS011;40724;53.196;5.980;2023-03-19T13:37:13;41.58;;;24.00;;
54823;SDS011;40724;53.196;5.980;2023-03-19T13:39:40;44.35;;;23.40;;
54823;SDS011;40724;53.196;5.980;2023-03-19T13:42:09;37.05;;;21.95;;
54823;SDS011;40724;53.196;5.980;2023-03-19T13:47:35;45.22;;;24.35;;
54823;SDS011;40724;53.196;5.980;2023-03-19T13:54:58;38.90;;;19.70;;
54823;SDS011;40724;53.196;5.980;2023-03-19T13:57:43;33.55;;;18.80;;
54823;SDS011;40724;53.196;5.980;2023-03-19T14:05:46;36.35;;;21.20;;
54823;SDS011;40724;53.196;5.980;2023-03-19T14:08:19;34.78;;;20.85;;
54823;SDS011;40724;53.196;5.980;2023-03-19T14:10:50;32.30;;;20.70;;
54823;SDS011;40724;53.196;5.980;2023-03-19T14:13:23;36.58;;;20.55;;
54823;SDS011;40724;53.196;5.980;2023-03-19T14:15:50;38.38;;;19.80;;
54823;SDS011;40724;53.196;5.980;2023-03-19T14:18:17;34.53;;;18.83;;
54823;SDS011;40724;53.196;5.980;2023-03-19T14:20:49;37.92;;;21.85;;
54823;SDS011;40724;53.196;5.980;2023-03-19T14:23:17;36.95;;;18.83;;
54823;SDS011;40724;53.196;5.980;2023-03-19T14:28:15;39.58;;;20.48;;
54823;SDS011;40724;53.196;5.980;2023-03-19T14:30:44;28.88;;;18.38;;
54823;SDS011;40724;53.196;5.980;2023-03-19T14:33:19;35.10;;;19.02;;
54823;SDS011;40724;53.196;5.980;2023-03-19T14:35:47;32.80;;;19.17;;
54823;SDS011;40724;53.196;5.980;2023-03-19T14:38:24;36.72;;;20.67;;
54823;SDS011;40724;53.196;5.980;2023-03-19T14:40:52;34.15;;;20.42;;
54823;SDS011;40724;53.196;5.980;2023-03-19T14:43:24;41.22;;;19.33;;
54823;SDS011;40724;53.196;5.980;2023-03-19T14:45:59;30.70;;;18.58;;
54823;SDS011;40724;53.196;5.980;2023-03-19T14:56:29;33.90;;;20.05;;
54823;SDS011;40724;53.196;5.980;2023-03-19T14:58:56;33.78;;;18.42;;
54823;SDS011;40724;53.196;5.980;2023-03-19T15:01:25;29.73;;;17.48;;
54823;SDS011;40724;53.196;5.980;2023-03-19T15:04:04;23.33;;;16.40;;
54823;SDS011;40724;53.196;5.980;2023-03-19T15:06:32;27.27;;;17.85;;
54823;SDS011;40724;53.196;5.980;2023-03-19T15:08:59;27.73;;;17.73;;
54823;SDS011;40724;53.196;5.980;2023-03-19T15:19:26;48.95;;;23.27;;
54823;SDS011;40724;53.196;5.980;2023-03-19T15:22:02;46.58;;;24.90;;
54823;SDS011;40724;53.196;5.980;2023-03-19T15:24:28;51.47;;;25.10;;
54823;SDS011;40724;53.196;5.980;2023-03-19T15:26:54;45.45;;;24.15;;
54823;SDS011;40724;53.196;5.980;2023-03-19T15:29:33;59.85;;;26.20;;
54823;SDS011;40724;53.196;5.980;2023-03-19T15:31:59;53.70;;;23.45;;
54823;SDS011;40724;53.196;5.980;2023-03-19T15:34:26;53.78;;;24.77;;
54823;SDS011;40724;53.196;5.980;2023-03-19T15:36:54;41.95;;;22.17;;
54823;SDS011;40724;53.196;5.980;2023-03-19T15:39:21;46.05;;;23.95;;
54823;SDS011;40724;53.196;5.980;2023-03-19T15:41:49;46.00;;;22.42;;
54823;SDS011;40724;53.196;5.980;2023-03-19T15:44:27;36.67;;;21.05;;
54823;SDS011;40724;53.196;5.980;2023-03-19T15:46:57;38.17;;;20.13;;
54823;SDS011;40724;53.196;5.980;2023-03-19T15:49:26;39.30;;;19.75;;
54823;SDS011;40724;53.196;5.980;2023-03-19T15:51:55;34.33;;;18.38;;
54823;SDS011;40724;53.196;5.980;2023-03-19T15:54:23;35.63;;;17.50;;
54823;SDS011;40724;53.196;5.980;2023-03-19T15:56:50;34.28;;;18.45;;
54823;SDS011;40724;53.196;5.980;2023-03-19T15:59:17;41.03;;;18.25;;
54823;SDS011;40724;53.196;5.980;2023-03-19T16:01:45;25.60;;;14.88;;
54823;SDS011;40724;53.196;5.980;2023-03-19T16:04:15;27.27;;;14.70;;
54823;SDS011;40724;53.196;5.980;2023-03-19T16:06:46;22.92;;;13.57;;
54823;SDS011;40724;53.196;5.980;2023-03-19T16:09:26;28.50;;;13.45;;
54823;SDS011;40724;53.196;5.980;2023-03-19T16:11:57;23.00;;;13.82;;
54823;SDS011;40724;53.196;5.980;2023-03-19T16:14:42;25.52;;;15.45;;
54823;SDS011;40724;53.196;5.980;2023-03-19T16:17:10;19.67;;;12.50;;
54823;SDS011;40724;53.196;5.980;2023-03-19T16:19:37;21.10;;;12.95;;
54823;SDS011;40724;53.196;5.980;2023-03-19T16:22:14;16.30;;;11.00;;
54823;SDS011;40724;53.196;5.980;2023-03-19T16:24:41;20.35;;;12.32;;
54823;SDS011;40724;53.196;5.980;2023-03-19T16:27:10;16.92;;;10.70;;
54823;SDS011;40724;53.196;5.980;2023-03-19T16:29:41;22.38;;;11.48;;
54823;SDS011;40724;53.196;5.980;2023-03-19T16:39:52;16.10;;;11.00;;
54823;SDS011;40724;53.196;5.980;2023-03-19T16:45:00;21.70;;;11.50;;